Time;durP1;ratioP1;P1;durP2;ratioP2;P2;SDS_P1;SDS_P2;PMS_P1;PMS_P2;Temp;Humidity;BMP_temperature;BMP_pressure;BME280_temperature;BME280_humidity;BME280_pressure;Samples;Min_cycle;Max_cycle;Signal;HPM_P1;HPM_P2
2022/08/20 00:02:19;;;;;;;2.30;2.10;;;;;;;;;;5132524;27;20200;-58
2022/08/20 00:07:47;;;;;;;3.07;2.47;;;;;;;;;;5716315;22;20282;-49
2022/08/20 00:10:13;;;;;;;3.73;2.63;;;;;;;;;;5067429;28;20671;-52
2022/08/20 00:12:43;;;;;;;3.73;2.30;;;;;;;;;;5072139;28;20203;-49
2022/08/20 00:15:09;;;;;;;2.47;2.27;;;;;;;;;;5072125;28;20605;-49
2022/08/20 00:17:36;;;;;;;3.50;2.63;;;;;;;;;;5071604;28;20752;-50
2022/08/20 00:20:04;;;;;;;3.90;2.60;;;;;;;;;;5072107;28;20249;-50
2022/08/20 00:22:30;;;;;;;3.03;2.70;;;;;;;;;;5071949;28;20241;-49
2022/08/20 00:24:56;;;;;;;3.73;2.20;;;;;;;;;;5071907;28;20218;-52
2022/08/20 00:27:22;;;;;;;2.40;2.20;;;;;;;;;;5072120;28;20653;-52
2022/08/20 00:29:48;;;;;;;6.03;2.70;;;;;;;;;;5071855;28;20211;-48
2022/08/20 00:32:14;;;;;;;7.23;2.60;;;;;;;;;;5071023;28;20221;-50
2022/08/20 00:34:41;;;;;;;2.73;2.50;;;;;;;;;;5071977;28;20207;-50
2022/08/20 00:37:07;;;;;;;3.03;2.50;;;;;;;;;;5071711;28;20250;-48
2022/08/20 00:39:34;;;;;;;2.50;2.30;;;;;;;;;;5070686;28;20223;-50
2022/08/20 00:42:00;;;;;;;3.57;2.40;;;;;;;;;;5071344;28;20204;-50
2022/08/20 00:44:26;;;;;;;3.60;2.23;;;;;;;;;;5070996;28;20198;-49
2022/08/20 00:46:52;;;;;;;3.93;2.20;;;;;;;;;;5071151;28;20719;-49
2022/08/20 00:49:21;;;;;;;5.37;2.30;;;;;;;;;;5071764;28;20227;-48
2022/08/20 00:51:51;;;;;;;2.60;2.07;;;;;;;;;;5071438;28;20203;-47
2022/08/20 00:54:20;;;;;;;3.17;2.10;;;;;;;;;;5071481;28;20195;-50
2022/08/20 00:56:47;;;;;;;2.97;2.30;;;;;;;;;;5071305;28;20624;-49
2022/08/20 00:59:15;;;;;;;3.30;2.37;;;;;;;;;;5070979;28;20198;-48
2022/08/20 01:01:42;;;;;;;4.80;2.60;;;;;;;;;;5071509;28;20195;-49
2022/08/20 01:04:09;;;;;;;3.17;2.33;;;;;;;;;;5070277;28;20678;-50
2022/08/20 01:06:36;;;;;;;2.47;2.03;;;;;;;;;;5075493;28;20241;-49
2022/08/20 01:09:03;;;;;;;2.60;2.40;;;;;;;;;;5091299;28;20266;-48
2022/08/20 01:11:32;;;;;;;2.90;2.57;;;;;;;;;;5090693;28;20623;-48
2022/08/20 01:13:59;;;;;;;3.10;2.60;;;;;;;;;;5091650;28;20209;-48
2022/08/20 01:16:29;;;;;;;3.33;2.47;;;;;;;;;;5091675;28;20602;-49
2022/08/20 01:18:56;;;;;;;5.17;2.50;;;;;;;;;;5091426;28;20273;-52
2022/08/20 01:21:27;;;;;;;2.50;2.30;;;;;;;;;;5091391;28;20204;-53
2022/08/20 01:23:56;;;;;;;2.77;2.40;;;;;;;;;;5091551;28;20306;-51
2022/08/20 01:26:25;;;;;;;3.40;2.40;;;;;;;;;;5091332;28;20200;-50
2022/08/20 01:28:53;;;;;;;3.00;2.70;;;;;;;;;;5091121;28;20668;-50
2022/08/20 01:31:20;;;;;;;2.83;2.60;;;;;;;;;;5091204;28;20264;-51
2022/08/20 01:33:47;;;;;;;4.00;2.60;;;;;;;;;;5091139;28;20631;-51
2022/08/20 01:36:14;;;;;;;3.00;2.60;;;;;;;;;;5091274;28;20232;-48
2022/08/20 01:38:41;;;;;;;3.60;2.80;;;;;;;;;;5091225;28;20195;-46
2022/08/20 01:41:13;;;;;;;4.37;2.70;;;;;;;;;;5091096;28;20232;-46
2022/08/20 01:43:41;;;;;;;4.10;3.10;;;;;;;;;;5091334;28;20205;-46
2022/08/20 01:46:08;;;;;;;6.47;2.90;;;;;;;;;;5091113;28;20203;-48
2022/08/20 01:48:34;;;;;;;4.43;3.40;;;;;;;;;;5091006;28;20199;-49
2022/08/20 01:51:04;;;;;;;4.77;3.87;;;;;;;;;;5090934;28;20204;-49
2022/08/20 01:53:32;;;;;;;4.57;3.03;;;;;;;;;;5092944;28;20193;-49
2022/08/20 01:55:58;;;;;;;5.37;3.33;;;;;;;;;;5095225;28;20301;-50
2022/08/20 01:58:26;;;;;;;4.43;3.83;;;;;;;;;;5095252;28;20255;-50
2022/08/20 02:00:53;;;;;;;4.07;3.67;;;;;;;;;;5095031;28;20197;-50
2022/08/20 02:03:19;;;;;;;5.03;3.93;;;;;;;;;;5095037;28;20692;-51
2022/08/20 02:05:45;;;;;;;4.77;4.10;;;;;;;;;;5094985;28;20189;-50
2022/08/20 02:08:11;;;;;;;4.93;4.43;;;;;;;;;;5094629;28;20225;-49
2022/08/20 02:10:37;;;;;;;4.50;4.10;;;;;;;;;;5094437;28;20210;-48
2022/08/20 02:13:04;;;;;;;4.33;3.93;;;;;;;;;;5093655;28;20215;-49
2022/08/20 02:15:30;;;;;;;5.37;4.27;;;;;;;;;;5094712;28;20205;-49
2022/08/20 02:17:58;;;;;;;4.63;4.23;;;;;;;;;;5094968;28;20211;-48
2022/08/20 02:20:27;;;;;;;5.77;4.50;;;;;;;;;;5094599;28;20675;-48
2022/08/20 02:22:54;;;;;;;5.03;4.60;;;;;;;;;;5094485;28;20247;-48
2022/08/20 02:25:21;;;;;;;4.73;4.33;;;;;;;;;;5094464;28;20262;-48
2022/08/20 02:27:48;;;;;;;5.67;4.53;;;;;;;;;;5094090;28;20194;-49
2022/08/20 02:30:15;;;;;;;4.53;4.17;;;;;;;;;;5093471;28;20191;-49
2022/08/20 02:32:42;;;;;;;4.90;4.50;;;;;;;;;;5094987;28;20190;-49
2022/08/20 02:35:12;;;;;;;5.03;4.47;;;;;;;;;;5094337;28;20754;-48
2022/08/20 02:37:38;;;;;;;5.17;4.40;;;;;;;;;;5094331;28;20256;-48
2022/08/20 02:40:06;;;;;;;4.97;4.60;;;;;;;;;;5094293;28;20221;-47
2022/08/20 02:45:42;;;;;;;5.33;4.30;;;;;;;;;;5094157;28;20182;-49
2022/08/20 02:48:09;;;;;;;5.30;4.80;;;;;;;;;;5094280;28;20676;-48
2022/08/20 02:50:36;;;;;;;5.53;5.00;;;;;;;;;;5093808;28;20669;-50
2022/08/20 02:53:02;;;;;;;5.37;4.80;;;;;;;;;;5093903;28;20294;-49
2022/08/20 02:55:28;;;;;;;5.37;4.83;;;;;;;;;;5094142;28;20679;-49
2022/08/20 02:57:55;;;;;;;4.87;4.47;;;;;;;;;;5094140;28;20184;-49
2022/08/20 03:00:22;;;;;;;5.53;5.03;;;;;;;;;;5094073;28;20267;-50
2022/08/20 03:02:48;;;;;;;6.07;5.00;;;;;;;;;;5094099;28;20199;-49
2022/08/20 03:05:14;;;;;;;7.13;4.90;;;;;;;;;;5094044;28;20208;-48
2022/08/20 03:07:42;;;;;;;6.37;5.00;;;;;;;;;;5093873;28;20212;-49
2022/08/20 03:10:08;;;;;;;5.90;5.40;;;;;;;;;;5093650;28;20654;-50
2022/08/20 03:12:37;;;;;;;5.00;4.60;;;;;;;;;;5094011;28;20213;-49
2022/08/20 03:15:03;;;;;;;5.40;4.90;;;;;;;;;;5093812;28;20567;-48
2022/08/20 03:17:29;;;;;;;4.70;4.30;;;;;;;;;;5093740;28;20318;-50
2022/08/20 03:19:55;;;;;;;5.57;5.10;;;;;;;;;;5094041;28;20288;-49
2022/08/20 03:22:21;;;;;;;5.93;5.30;;;;;;;;;;5093583;28;20201;-50
2022/08/20 03:24:49;;;;;;;5.20;4.70;;;;;;;;;;5093415;28;20261;-48
2022/08/20 03:27:15;;;;;;;5.27;4.87;;;;;;;;;;5093560;28;20208;-50
2022/08/20 03:29:40;;;;;;;5.97;5.43;;;;;;;;;;5093323;28;20199;-49
2022/08/20 03:32:06;;;;;;;5.53;5.03;;;;;;;;;;5093401;28;20242;-50
2022/08/20 03:34:33;;;;;;;5.20;4.80;;;;;;;;;;5093242;28;20657;-50
2022/08/20 03:36:59;;;;;;;5.43;4.87;;;;;;;;;;5093202;28;20652;-50
2022/08/20 03:39:25;;;;;;;6.00;5.40;;;;;;;;;;5093355;28;20200;-49
2022/08/20 03:41:52;;;;;;;5.87;5.37;;;;;;;;;;5093085;28;20231;-48
2022/08/20 03:44:19;;;;;;;7.63;5.50;;;;;;;;;;5093147;28;20302;-48
2022/08/20 03:46:45;;;;;;;5.50;5.00;;;;;;;;;;5093115;28;20203;-50
2022/08/20 03:49:11;;;;;;;5.37;4.97;;;;;;;;;;5093266;28;20193;-50
2022/08/20 03:51:37;;;;;;;5.73;5.33;;;;;;;;;;5092838;28;20197;-49
2022/08/20 03:54:03;;;;;;;6.47;5.10;;;;;;;;;;5092795;28;20205;-50
2022/08/20 03:56:29;;;;;;;5.50;4.87;;;;;;;;;;5092136;28;20313;-48
2022/08/20 03:58:56;;;;;;;6.03;5.43;;;;;;;;;;5091162;28;20578;-49
2022/08/20 04:01:22;;;;;;;6.67;5.97;;;;;;;;;;5092509;28;20211;-50
2022/08/20 04:03:48;;;;;;;6.53;6.03;;;;;;;;;;5092636;28;20219;-50
2022/08/20 04:06:16;;;;;;;6.47;5.97;;;;;;;;;;5092720;28;20199;-48
2022/08/20 04:08:42;;;;;;;6.37;5.80;;;;;;;;;;5092526;28;20292;-49
2022/08/20 04:11:08;;;;;;;7.00;6.40;;;;;;;;;;5092701;28;20189;-49
2022/08/20 04:13:34;;;;;;;7.27;6.10;;;;;;;;;;5092768;28;20201;-49
2022/08/20 04:16:02;;;;;;;8.00;6.13;;;;;;;;;;5092035;28;20219;-49
2022/08/20 04:18:28;;;;;;;6.10;5.50;;;;;;;;;;5092632;28;20205;-48
2022/08/20 04:20:55;;;;;;;7.07;6.37;;;;;;;;;;5092420;28;20208;-50
2022/08/20 04:23:21;;;;;;;6.73;6.13;;;;;;;;;;5092651;28;20271;-48
2022/08/20 04:25:48;;;;;;;6.93;6.20;;;;;;;;;;5092162;28;20211;-49
2022/08/20 04:28:19;;;;;;;6.40;5.80;;;;;;;;;;5092475;28;20289;-50
2022/08/20 04:30:45;;;;;;;6.90;6.27;;;;;;;;;;5092252;28;20201;-48
2022/08/20 04:33:12;;;;;;;6.37;5.87;;;;;;;;;;5092357;28;20568;-48
2022/08/20 04:35:38;;;;;;;7.77;7.13;;;;;;;;;;5091968;28;20202;-50
2022/08/20 04:38:06;;;;;;;9.27;7.30;;;;;;;;;;5092061;28;20728;-51
2022/08/20 04:43:18;;;;;;;8.77;7.53;;;;;;;;;;5092046;28;20194;-49
2022/08/20 04:45:45;;;;;;;7.63;7.03;;;;;;;;;;5091976;28;20201;-48
2022/08/20 04:48:13;;;;;;;8.70;7.87;;;;;;;;;;5092125;28;20288;-50
2022/08/20 04:50:39;;;;;;;7.17;6.57;;;;;;;;;;5091806;28;20723;-48
2022/08/20 04:53:06;;;;;;;8.10;7.23;;;;;;;;;;5091901;28;20201;-47
2022/08/20 04:55:32;;;;;;;8.10;7.30;;;;;;;;;;5091772;28;20203;-47
2022/08/20 04:58:02;;;;;;;7.57;6.87;;;;;;;;;;5091784;28;20220;-49
2022/08/20 05:00:28;;;;;;;7.63;6.90;;;;;;;;;;5091922;28;20227;-49
2022/08/20 05:02:54;;;;;;;7.80;7.10;;;;;;;;;;5091582;28;20230;-49
2022/08/20 05:05:21;;;;;;;8.07;7.27;;;;;;;;;;5091488;28;20205;-48
2022/08/20 05:07:47;;;;;;;8.37;7.17;;;;;;;;;;5091332;28;20259;-47
2022/08/20 05:10:15;;;;;;;7.73;7.03;;;;;;;;;;5091499;28;20241;-48
2022/08/20 05:12:41;;;;;;;9.70;8.73;;;;;;;;;;5091661;28;20223;-49
2022/08/20 05:15:10;;;;;;;8.87;7.97;;;;;;;;;;5091416;28;20201;-49
2022/08/20 05:17:36;;;;;;;9.50;8.60;;;;;;;;;;5091341;28;20226;-49
2022/08/20 05:20:02;;;;;;;9.93;9.03;;;;;;;;;;5091232;28;20204;-50
2022/08/20 05:22:29;;;;;;;10.00;9.07;;;;;;;;;;5091519;28;20207;-50
2022/08/20 05:24:58;;;;;;;11.03;9.87;;;;;;;;;;5091331;28;20231;-49
2022/08/20 05:27:25;;;;;;;10.67;9.57;;;;;;;;;;5090577;28;20193;-48
2022/08/20 05:29:52;;;;;;;12.37;11.17;;;;;;;;;;5090972;28;20678;-49
2022/08/20 05:32:19;;;;;;;11.37;10.27;;;;;;;;;;5091364;28;20197;-49
2022/08/20 05:34:44;;;;;;;12.10;10.80;;;;;;;;;;5091094;28;20212;-48
2022/08/20 05:37:10;;;;;;;12.80;11.43;;;;;;;;;;5091239;28;20217;-50
2022/08/20 05:39:38;;;;;;;12.90;11.53;;;;;;;;;;5091111;28;20212;-49
2022/08/20 05:42:04;;;;;;;12.87;11.67;;;;;;;;;;5091174;28;20284;-49
2022/08/20 05:44:30;;;;;;;13.17;11.67;;;;;;;;;;5091216;28;20307;-48
2022/08/20 05:46:56;;;;;;;13.20;11.90;;;;;;;;;;5091166;28;20530;-48
2022/08/20 05:49:22;;;;;;;13.47;11.93;;;;;;;;;;5090601;28;20296;-50
2022/08/20 05:51:50;;;;;;;13.10;11.80;;;;;;;;;;5090490;28;20233;-51
2022/08/20 05:54:16;;;;;;;13.27;11.97;;;;;;;;;;5090293;28;20212;-50
2022/08/20 05:56:43;;;;;;;11.63;10.53;;;;;;;;;;5090850;28;20218;-49
2022/08/20 05:59:11;;;;;;;14.70;13.27;;;;;;;;;;5090785;28;20562;-48
2022/08/20 06:01:37;;;;;;;13.97;12.77;;;;;;;;;;5090681;28;20194;-49
2022/08/20 06:06:50;;;;;;;12.53;11.33;;;;;;;;;;5090017;28;20296;-47
2022/08/20 06:09:18;;;;;;;14.30;12.07;;;;;;;;;;5089674;28;20597;-47
2022/08/20 06:11:45;;;;;;;14.20;11.53;;;;;;;;;;5090484;28;20203;-48
2022/08/20 06:14:11;;;;;;;14.17;12.17;;;;;;;;;;5090579;28;20194;-49
2022/08/20 06:16:37;;;;;;;12.13;10.93;;;;;;;;;;5090339;28;20244;-49
2022/08/20 06:19:03;;;;;;;13.03;11.80;;;;;;;;;;5090984;28;20258;-48
2022/08/20 06:21:29;;;;;;;12.27;10.97;;;;;;;;;;5090832;28;20202;-49
2022/08/20 06:23:55;;;;;;;14.40;11.73;;;;;;;;;;5090103;28;20733;-49
2022/08/20 06:26:21;;;;;;;11.17;10.13;;;;;;;;;;5090013;28;20190;-49
2022/08/20 06:28:48;;;;;;;12.10;10.93;;;;;;;;;;5090610;28;20195;-49
2022/08/20 06:31:14;;;;;;;11.33;10.20;;;;;;;;;;5090463;28;20206;-49
2022/08/20 06:33:41;;;;;;;12.07;10.87;;;;;;;;;;5090663;28;20194;-48
2022/08/20 06:36:07;;;;;;;10.60;9.60;;;;;;;;;;5090518;28;20190;-50
2022/08/20 06:38:33;;;;;;;10.53;9.00;;;;;;;;;;5090626;28;20222;-48
2022/08/20 06:40:59;;;;;;;10.17;9.20;;;;;;;;;;5094288;28;20201;-50
2022/08/20 06:43:25;;;;;;;10.80;8.80;;;;;;;;;;5094100;28;20198;-49
2022/08/20 06:45:56;;;;;;;10.20;9.17;;;;;;;;;;5092703;28;20208;-49
2022/08/20 06:48:22;;;;;;;12.33;9.30;;;;;;;;;;5094156;28;20617;-48
2022/08/20 06:50:48;;;;;;;11.50;9.77;;;;;;;;;;5093903;28;20195;-50
2022/08/20 06:53:16;;;;;;;9.57;8.63;;;;;;;;;;5094827;28;20203;-50
2022/08/20 06:55:46;;;;;;;9.57;8.67;;;;;;;;;;5093942;28;20206;-48
2022/08/20 06:58:13;;;;;;;8.60;7.80;;;;;;;;;;5093669;28;20223;-50
2022/08/20 07:00:41;;;;;;;9.87;8.83;;;;;;;;;;5091854;28;20190;-50
2022/08/20 07:03:08;;;;;;;9.20;8.30;;;;;;;;;;5093967;28;20222;-50
2022/08/20 07:05:35;;;;;;;7.77;7.07;;;;;;;;;;5093630;28;20202;-49
2022/08/20 07:08:04;;;;;;;9.73;8.73;;;;;;;;;;5093881;28;20283;-51
2022/08/20 07:10:31;;;;;;;9.87;8.87;;;;;;;;;;5093579;28;20238;-50
2022/08/20 07:12:58;;;;;;;8.67;7.77;;;;;;;;;;5093315;28;20244;-49
2022/08/20 07:15:25;;;;;;;7.03;6.43;;;;;;;;;;5093147;28;20567;-49
2022/08/20 07:17:52;;;;;;;7.53;6.93;;;;;;;;;;5092936;28;20234;-49
2022/08/20 07:20:20;;;;;;;10.07;7.53;;;;;;;;;;5093849;28;20282;-50
2022/08/20 07:22:46;;;;;;;8.03;7.23;;;;;;;;;;5093407;28;20207;-49
2022/08/20 07:25:13;;;;;;;8.23;7.43;;;;;;;;;;5093811;28;20648;-49
2022/08/20 07:27:39;;;;;;;8.50;7.70;;;;;;;;;;5093428;28;20278;-49
2022/08/20 07:32:52;;;;;;;10.33;9.23;;;;;;;;;;5092961;28;20263;-49
2022/08/20 07:35:20;;;;;;;10.50;9.50;;;;;;;;;;5093501;28;20225;-49
2022/08/20 07:37:47;;;;;;;9.80;8.90;;;;;;;;;;5093474;28;20317;-49
2022/08/20 07:40:14;;;;;;;9.60;8.70;;;;;;;;;;5093362;28;20191;-49
2022/08/20 07:42:40;;;;;;;9.93;8.93;;;;;;;;;;5093119;28;20198;-49
2022/08/20 07:45:09;;;;;;;10.83;9.83;;;;;;;;;;5091416;28;20222;-50
2022/08/20 07:47:35;;;;;;;11.13;10.13;;;;;;;;;;5092298;28;20209;-49
2022/08/20 07:50:01;;;;;;;10.27;9.27;;;;;;;;;;5092938;28;20548;-50
2022/08/20 07:52:28;;;;;;;9.70;8.80;;;;;;;;;;5092429;28;20287;-50
2022/08/20 07:54:54;;;;;;;10.50;9.50;;;;;;;;;;5093193;28;20718;-49
2022/08/20 07:57:20;;;;;;;11.37;10.13;;;;;;;;;;5092856;28;20230;-50
2022/08/20 07:59:47;;;;;;;11.10;10.20;;;;;;;;;;5092777;28;20198;-50
2022/08/20 08:02:13;;;;;;;11.13;10.23;;;;;;;;;;5093019;28;20195;-50
2022/08/20 08:04:39;;;;;;;11.17;10.17;;;;;;;;;;5092806;28;20281;-50
2022/08/20 08:07:06;;;;;;;9.33;8.50;;;;;;;;;;5092850;28;20297;-50
2022/08/20 08:09:33;;;;;;;9.47;8.67;;;;;;;;;;5092557;28;20236;-51
2022/08/20 08:12:01;;;;;;;8.73;7.87;;;;;;;;;;5092374;28;20210;-50
2022/08/20 08:14:28;;;;;;;8.10;7.30;;;;;;;;;;5090364;28;20234;-50
2022/08/20 08:16:56;;;;;;;8.23;7.53;;;;;;;;;;5092364;28;20225;-51
2022/08/20 08:19:22;;;;;;;7.13;6.30;;;;;;;;;;5092580;28;20191;-50
2022/08/20 08:21:48;;;;;;;6.93;6.30;;;;;;;;;;5092301;28;20195;-50
2022/08/20 08:24:16;;;;;;;7.63;6.80;;;;;;;;;;5091952;28;20259;-50
2022/08/20 08:26:44;;;;;;;7.67;7.00;;;;;;;;;;5092508;28;20248;-50
2022/08/20 08:29:10;;;;;;;7.50;6.70;;;;;;;;;;5092662;28;20297;-48
2022/08/20 08:31:37;;;;;;;6.70;6.10;;;;;;;;;;5091978;28;20252;-49
2022/08/20 08:34:03;;;;;;;7.13;6.33;;;;;;;;;;5092221;28;20613;-49
2022/08/20 08:36:29;;;;;;;6.60;6.00;;;;;;;;;;5092309;28;20215;-49
2022/08/20 08:38:55;;;;;;;6.93;6.37;;;;;;;;;;5092286;28;20231;-49
2022/08/20 08:41:27;;;;;;;7.30;6.67;;;;;;;;;;5091731;28;20285;-49
2022/08/20 08:43:56;;;;;;;7.30;6.70;;;;;;;;;;5091879;28;20220;-50
2022/08/20 08:46:24;;;;;;;7.13;6.30;;;;;;;;;;5092141;28;20623;-50
2022/08/20 08:48:52;;;;;;;6.47;5.87;;;;;;;;;;5091785;28;20368;-50
2022/08/20 08:51:20;;;;;;;5.47;4.97;;;;;;;;;;5091830;28;20194;-53
2022/08/20 08:53:49;;;;;;;6.03;5.53;;;;;;;;;;5090567;28;20548;-52
2022/08/20 08:56:16;;;;;;;6.30;5.80;;;;;;;;;;5090030;28;20204;-51
2022/08/20 08:58:43;;;;;;;5.93;5.33;;;;;;;;;;5091681;28;20190;-51
2022/08/20 09:01:12;;;;;;;5.73;5.23;;;;;;;;;;5089857;28;20199;-51
2022/08/20 09:03:39;;;;;;;6.73;6.10;;;;;;;;;;5089217;28;20276;-50
2022/08/20 09:06:06;;;;;;;6.53;5.93;;;;;;;;;;5091255;28;20187;-51
2022/08/20 09:08:33;;;;;;;7.20;6.50;;;;;;;;;;5091370;28;20225;-51
2022/08/20 09:11:03;;;;;;;6.83;6.20;;;;;;;;;;5091717;28;20202;-51
2022/08/20 09:13:29;;;;;;;6.77;6.13;;;;;;;;;;5091504;28;20331;-50
2022/08/20 09:15:55;;;;;;;6.47;5.87;;;;;;;;;;5091632;28;20204;-51
2022/08/20 09:18:22;;;;;;;6.47;5.60;;;;;;;;;;5090563;28;20226;-50
2022/08/20 09:20:48;;;;;;;6.70;6.00;;;;;;;;;;5091334;28;20195;-51
2022/08/20 09:23:14;;;;;;;7.23;6.57;;;;;;;;;;5090415;28;20216;-50
2022/08/20 09:25:40;;;;;;;6.80;6.30;;;;;;;;;;5091907;28;20195;-50
2022/08/20 09:28:06;;;;;;;7.40;6.00;;;;;;;;;;5091731;28;20207;-50
2022/08/20 09:30:32;;;;;;;7.63;6.80;;;;;;;;;;5091705;28;20727;-50
2022/08/20 09:32:58;;;;;;;6.53;5.93;;;;;;;;;;5091732;28;20190;-50
2022/08/20 09:35:26;;;;;;;6.60;5.90;;;;;;;;;;5091671;28;20205;-49
2022/08/20 09:37:52;;;;;;;6.57;5.53;;;;;;;;;;5091513;28;20227;-50
2022/08/20 09:40:18;;;;;;;6.57;5.93;;;;;;;;;;5091630;28;20202;-50
2022/08/20 09:42:44;;;;;;;5.40;4.90;;;;;;;;;;5091557;28;20658;-49
2022/08/20 09:45:11;;;;;;;5.13;4.63;;;;;;;;;;5091557;28;20693;-49
2022/08/20 09:47:37;;;;;;;6.83;5.20;;;;;;;;;;5091494;28;20192;-49
2022/08/20 09:50:03;;;;;;;6.90;6.30;;;;;;;;;;5091386;28;20222;-50
2022/08/20 09:52:32;;;;;;;6.57;5.97;;;;;;;;;;5091646;28;20197;-50
2022/08/20 09:54:59;;;;;;;6.30;5.67;;;;;;;;;;5091524;28;20203;-49
2022/08/20 09:57:26;;;;;;;6.20;5.60;;;;;;;;;;5091461;28;20230;-49
2022/08/20 09:59:53;;;;;;;6.67;6.07;;;;;;;;;;5091074;28;20203;-49
2022/08/20 10:02:19;;;;;;;6.93;6.23;;;;;;;;;;5091126;28;20204;-49
2022/08/20 10:04:45;;;;;;;6.43;5.93;;;;;;;;;;5090964;28;20196;-50
2022/08/20 10:07:11;;;;;;;6.50;5.87;;;;;;;;;;5090538;28;20754;-49
2022/08/20 10:09:38;;;;;;;6.67;5.90;;;;;;;;;;5090295;28;20223;-50
2022/08/20 10:12:05;;;;;;;5.80;5.20;;;;;;;;;;5090575;28;20222;-50
2022/08/20 10:14:31;;;;;;;8.03;7.27;;;;;;;;;;5092621;28;20203;-50
2022/08/20 10:16:57;;;;;;;7.97;7.20;;;;;;;;;;5094524;28;20215;-49
2022/08/20 10:19:23;;;;;;;7.67;7.10;;;;;;;;;;5095084;28;20290;-49
2022/08/20 10:21:50;;;;;;;6.90;6.30;;;;;;;;;;5094653;28;20315;-49
2022/08/20 10:24:16;;;;;;;8.73;7.70;;;;;;;;;;5093892;28;20206;-50
2022/08/20 10:26:44;;;;;;;7.00;6.47;;;;;;;;;;5094435;28;20195;-49
2022/08/20 10:29:10;;;;;;;7.13;5.87;;;;;;;;;;5094576;28;20206;-49
2022/08/20 10:31:36;;;;;;;6.43;5.83;;;;;;;;;;5094645;28;20196;-49
2022/08/20 10:34:02;;;;;;;8.20;7.40;;;;;;;;;;5094547;28;20246;-49
2022/08/20 10:36:28;;;;;;;8.17;6.77;;;;;;;;;;5094741;28;20199;-48
2022/08/20 10:38:54;;;;;;;8.13;7.33;;;;;;;;;;5094446;28;20272;-49
2022/08/20 10:41:20;;;;;;;7.13;6.43;;;;;;;;;;5094100;28;20212;-49
2022/08/20 10:43:47;;;;;;;6.93;6.17;;;;;;;;;;5093828;28;20565;-49
2022/08/20 10:46:14;;;;;;;6.37;5.73;;;;;;;;;;5094788;28;20205;-49
2022/08/20 10:48:40;;;;;;;7.93;5.20;;;;;;;;;;5094465;28;20294;-49
2022/08/20 10:51:06;;;;;;;9.90;4.93;;;;;;;;;;5094366;28;20274;-49
2022/08/20 10:53:32;;;;;;;4.83;4.10;;;;;;;;;;5094362;28;20206;-50
2022/08/20 10:55:58;;;;;;;6.20;4.23;;;;;;;;;;5094180;28;20214;-49
2022/08/20 10:58:24;;;;;;;4.53;4.13;;;;;;;;;;5094136;28;20226;-49
2022/08/20 11:00:52;;;;;;;7.17;4.63;;;;;;;;;;5094087;28;20235;-50
2022/08/20 11:03:18;;;;;;;5.30;3.50;;;;;;;;;;5093940;28;20197;-49
2022/08/20 11:05:44;;;;;;;7.07;3.90;;;;;;;;;;5094100;28;20194;-50
2022/08/20 11:08:10;;;;;;;5.67;3.50;;;;;;;;;;5094010;28;20263;-50
2022/08/20 11:10:37;;;;;;;3.63;3.23;;;;;;;;;;5093950;28;20640;-50
2022/08/20 11:13:04;;;;;;;6.97;3.63;;;;;;;;;;5093802;28;20240;-49
2022/08/20 11:15:30;;;;;;;3.53;2.60;;;;;;;;;;5094060;28;20201;-50
2022/08/20 11:17:57;;;;;;;3.97;2.00;;;;;;;;;;5093741;28;20313;-50
2022/08/20 11:23:31;;;;;;;3.37;2.00;;;;;;;;;;5052063;28;20201;-50
2022/08/20 11:25:57;;;;;;;3.83;1.97;;;;;;;;;;5090954;28;20209;-50
2022/08/20 11:28:23;;;;;;;6.77;2.10;;;;;;;;;;5092372;28;20198;-50
2022/08/20 11:30:49;;;;;;;4.97;2.00;;;;;;;;;;5092467;28;20205;-50
2022/08/20 11:33:17;;;;;;;3.27;2.20;;;;;;;;;;5092163;28;20201;-50
2022/08/20 11:35:43;;;;;;;4.53;2.00;;;;;;;;;;5092168;28;20662;-50
2022/08/20 11:38:10;;;;;;;4.07;2.00;;;;;;;;;;5093554;28;20223;-50
2022/08/20 11:40:36;;;;;;;4.10;1.90;;;;;;;;;;5093752;28;20191;-51
2022/08/20 11:43:02;;;;;;;3.40;1.90;;;;;;;;;;5093583;28;20610;-50
2022/08/20 11:45:28;;;;;;;3.20;1.87;;;;;;;;;;5093768;28;20201;-51
2022/08/20 11:47:54;;;;;;;3.97;2.07;;;;;;;;;;5093509;28;20254;-50
2022/08/20 11:50:21;;;;;;;6.20;2.20;;;;;;;;;;5093504;28;20233;-50
2022/08/20 11:52:47;;;;;;;3.93;1.93;;;;;;;;;;5093430;28;20207;-50
2022/08/20 11:55:15;;;;;;;4.13;1.83;;;;;;;;;;5093510;28;20200;-50
2022/08/20 11:57:42;;;;;;;4.20;1.70;;;;;;;;;;5093341;28;20229;-52
2022/08/20 12:00:11;;;;;;;4.00;1.83;;;;;;;;;;5093333;28;20670;-51
2022/08/20 12:02:38;;;;;;;4.60;2.13;;;;;;;;;;5093199;28;20239;-52
2022/08/20 12:05:04;;;;;;;3.83;1.63;;;;;;;;;;5093045;28;20594;-51
2022/08/20 12:07:31;;;;;;;4.70;1.87;;;;;;;;;;5093210;28;20213;-51
2022/08/20 12:09:58;;;;;;;6.23;1.90;;;;;;;;;;5093109;28;20243;-51
2022/08/20 12:12:24;;;;;;;4.33;1.70;;;;;;;;;;5093256;28;20189;-52
2022/08/20 12:14:50;;;;;;;4.40;1.77;;;;;;;;;;5092955;28;20645;-51
2022/08/20 12:17:18;;;;;;;5.13;1.87;;;;;;;;;;5093045;28;20570;-50
2022/08/20 12:19:45;;;;;;;4.63;1.60;;;;;;;;;;5092956;28;20229;-50
2022/08/20 12:22:11;;;;;;;2.60;1.60;;;;;;;;;;5092987;28;20205;-50
2022/08/20 12:24:39;;;;;;;2.43;1.57;;;;;;;;;;5092811;28;20194;-49
2022/08/20 12:27:09;;;;;;;4.77;1.90;;;;;;;;;;5092742;28;20747;-50
2022/08/20 12:29:35;;;;;;;2.57;1.37;;;;;;;;;;5092808;28;20226;-50
2022/08/20 12:32:03;;;;;;;2.53;1.37;;;;;;;;;;5092640;28;20202;-50
2022/08/20 12:34:29;;;;;;;4.30;1.60;;;;;;;;;;5092825;28;20191;-50
2022/08/20 12:36:59;;;;;;;2.90;1.37;;;;;;;;;;5092190;28;20619;-49
2022/08/20 12:39:25;;;;;;;3.50;1.57;;;;;;;;;;5092670;28;20222;-49
2022/08/20 12:41:52;;;;;;;3.00;1.60;;;;;;;;;;5091339;28;20429;-49
2022/08/20 12:44:18;;;;;;;3.55;1.60;;;;;;;;;;5091300;28;20497;-50
2022/08/20 12:46:44;;;;;;;2.80;1.63;;;;;;;;;;5092563;28;20669;-51
2022/08/20 12:49:10;;;;;;;2.73;1.53;;;;;;;;;;5092383;28;20200;-50
2022/08/20 12:51:36;;;;;;;4.43;1.77;;;;;;;;;;5092440;28;20229;-50
2022/08/20 12:54:02;;;;;;;3.67;1.70;;;;;;;;;;5092166;28;20196;-51
2022/08/20 12:56:28;;;;;;;3.20;1.50;;;;;;;;;;5092149;28;20641;-50
2022/08/20 12:58:55;;;;;;;3.17;1.60;;;;;;;;;;5092206;28;20281;-52
2022/08/20 13:01:21;;;;;;;3.33;1.60;;;;;;;;;;5092278;28;20199;-56
2022/08/20 13:03:47;;;;;;;1.83;1.40;;;;;;;;;;5092086;28;20194;-50
2022/08/20 13:06:13;;;;;;;2.23;1.33;;;;;;;;;;5092162;28;20645;-52
2022/08/20 13:08:39;;;;;;;6.80;1.50;;;;;;;;;;5073706;28;20263;-50
2022/08/20 13:11:05;;;;;;;3.67;1.60;;;;;;;;;;5092029;28;20221;-51
2022/08/20 13:13:31;;;;;;;3.03;1.73;;;;;;;;;;5092075;28;20247;-50
2022/08/20 13:15:59;;;;;;;2.53;1.40;;;;;;;;;;5092142;28;20199;-50
2022/08/20 13:18:25;;;;;;;4.03;1.60;;;;;;;;;;5091890;28;20226;-51
2022/08/20 13:20:51;;;;;;;6.83;1.60;;;;;;;;;;5091800;28;20200;-50
2022/08/20 13:23:17;;;;;;;2.37;1.50;;;;;;;;;;5091871;28;20198;-51
2022/08/20 13:25:43;;;;;;;2.87;1.60;;;;;;;;;;5092014;28;20197;-50
2022/08/20 13:28:09;;;;;;;3.83;1.70;;;;;;;;;;5091713;28;20612;-51
2022/08/20 13:30:39;;;;;;;5.97;1.93;;;;;;;;;;5091464;28;20347;-50
2022/08/20 13:33:07;;;;;;;7.07;1.83;;;;;;;;;;5091400;28;20257;-50
2022/08/20 13:35:33;;;;;;;5.83;1.80;;;;;;;;;;5091045;28;20304;-51
2022/08/20 13:37:59;;;;;;;4.43;1.70;;;;;;;;;;5091130;28;20759;-50
2022/08/20 13:40:25;;;;;;;4.33;1.47;;;;;;;;;;5091890;28;20200;-51
2022/08/20 13:42:51;;;;;;;3.40;1.80;;;;;;;;;;5090702;28;20252;-51
2022/08/20 13:45:17;;;;;;;4.33;1.60;;;;;;;;;;5090689;28;20208;-51
2022/08/20 13:47:43;;;;;;;2.97;1.47;;;;;;;;;;5091293;28;20263;-50
2022/08/20 13:50:12;;;;;;;4.23;1.83;;;;;;;;;;5090200;28;20205;-51
2022/08/20 13:52:38;;;;;;;5.63;1.90;;;;;;;;;;5091062;28;20202;-54
2022/08/20 13:55:04;;;;;;;6.28;4.55;;;;;;;;;;5089995;28;20756;-51
2022/08/20 13:57:30;;;;;;;6.50;5.30;;;;;;;;;;5091327;28;20227;-51
2022/08/20 13:59:57;;;;;;;5.17;2.53;;;;;;;;;;5090797;28;20203;-51
2022/08/20 14:02:24;;;;;;;4.00;2.00;;;;;;;;;;5090236;28;20211;-52
2022/08/20 14:04:50;;;;;;;4.70;1.90;;;;;;;;;;5090339;28;20278;-51
2022/08/20 14:07:19;;;;;;;5.83;1.60;;;;;;;;;;5090561;28;20556;-51
2022/08/20 14:09:46;;;;;;;5.80;1.50;;;;;;;;;;5090943;28;20242;-51
2022/08/20 14:12:13;;;;;;;7.20;1.80;;;;;;;;;;5090642;28;20195;-52
2022/08/20 14:14:39;;;;;;;3.63;1.77;;;;;;;;;;5090853;28;20724;-51
2022/08/20 14:17:13;;;;;;;4.10;1.80;;;;;;;;;;5090005;28;20210;-52
2022/08/20 14:19:39;;;;;;;3.03;1.50;;;;;;;;;;5090671;28;20190;-51
2022/08/20 14:22:05;;;;;;;3.87;1.70;;;;;;;;;;5090741;28;20202;-52
2022/08/20 14:24:34;;;;;;;5.20;1.90;;;;;;;;;;5090839;28;20207;-51
2022/08/20 14:27:01;;;;;;;3.43;1.47;;;;;;;;;;5090996;28;20202;-52
2022/08/20 14:29:27;;;;;;;2.47;1.50;;;;;;;;;;5091081;28;20276;-52
2022/08/20 14:31:53;;;;;;;4.53;1.80;;;;;;;;;;5090572;28;20225;-52
2022/08/20 14:34:19;;;;;;;4.07;1.80;;;;;;;;;;5090558;28;20667;-49
2022/08/20 14:36:45;;;;;;;3.43;1.67;;;;;;;;;;5090876;28;20193;-49
2022/08/20 14:39:11;;;;;;;3.27;1.43;;;;;;;;;;5089942;28;20330;-50
2022/08/20 14:41:39;;;;;;;4.53;1.70;;;;;;;;;;5090712;28;20574;-50
2022/08/20 14:44:05;;;;;;;6.53;2.07;;;;;;;;;;5090641;28;20224;-52
2022/08/20 14:46:31;;;;;;;5.73;1.63;;;;;;;;;;5090596;28;20748;-51
2022/08/20 14:48:57;;;;;;;4.40;1.97;;;;;;;;;;5090818;28;20664;-51
2022/08/20 14:51:23;;;;;;;3.03;1.77;;;;;;;;;;5090730;28;20248;-51
2022/08/20 14:53:49;;;;;;;4.53;2.00;;;;;;;;;;5090686;28;20216;-51
2022/08/20 14:56:16;;;;;;;3.37;1.83;;;;;;;;;;5090584;28;20253;-51